sensor_id;sensor_type;location;lat;lon;timestamp;P1;durP1;ratioP1;P2;durP2;ratioP2
37001;SDS011;22913;51.910;8.374;2023-06-04T01:14:37;1.60;;;1.50;;
37001;SDS011;22913;51.910;8.374;2023-06-04T01:28:49;1.50;;;1.40;;
37001;SDS011;22913;51.910;8.374;2023-06-04T01:37:08;1.90;;;1.80;;
37001;SDS011;22913;51.910;8.374;2023-06-04T01:42:42;1.95;;;1.75;;
37001;SDS011;22913;51.910;8.374;2023-06-04T01:45:28;3.00;;;1.55;;
37001;SDS011;22913;51.910;8.374;2023-06-04T01:50:59;2.00;;;1.00;;
37001;SDS011;22913;51.910;8.374;2023-06-04T01:53:45;1.40;;;1.30;;
37001;SDS011;22913;51.910;8.374;2023-06-04T01:56:33;1.65;;;1.50;;
37001;SDS011;22913;51.910;8.374;2023-06-04T01:59:18;1.70;;;1.60;;
37001;SDS011;22913;51.910;8.374;2023-06-04T02:02:05;1.80;;;1.70;;
37001;SDS011;22913;51.910;8.374;2023-06-04T02:04:51;1.80;;;1.67;;
37001;SDS011;22913;51.910;8.374;2023-06-04T02:07:37;1.50;;;1.40;;
37001;SDS011;22913;51.910;8.374;2023-06-04T02:10:24;1.80;;;1.45;;
37001;SDS011;22913;51.910;8.374;2023-06-04T02:13:11;1.55;;;1.40;;
37001;SDS011;22913;51.910;8.374;2023-06-04T02:15:57;1.53;;;1.30;;
37001;SDS011;22913;51.910;8.374;2023-06-04T02:18:42;1.35;;;1.25;;
37001;SDS011;22913;51.910;8.374;2023-06-04T02:21:28;1.70;;;1.60;;
37001;SDS011;22913;51.910;8.374;2023-06-04T02:24:14;1.60;;;1.50;;
37001;SDS011;22913;51.910;8.374;2023-06-04T02:27:00;2.17;;;1.80;;
37001;SDS011;22913;51.910;8.374;2023-06-04T02:29:46;1.47;;;1.33;;
37001;SDS011;22913;51.910;8.374;2023-06-04T02:32:32;1.33;;;1.33;;
37001;SDS011;22913;51.910;8.374;2023-06-04T02:35:19;2.33;;;1.40;;
37001;SDS011;22913;51.910;8.374;2023-06-04T02:38:06;3.80;;;1.30;;
37001;SDS011;22913;51.910;8.374;2023-06-04T02:40:52;1.80;;;1.60;;
37001;SDS011;22913;51.910;8.374;2023-06-04T02:43:38;1.55;;;1.45;;
37001;SDS011;22913;51.910;8.374;2023-06-04T04:26:02;1.60;;;1.50;;
37001;SDS011;22913;51.910;8.374;2023-06-04T04:28:48;1.95;;;1.50;;
37001;SDS011;22913;51.910;8.374;2023-06-04T04:31:36;1.70;;;1.60;;
37001;SDS011;22913;51.910;8.374;2023-06-04T04:34:21;1.60;;;1.50;;
37001;SDS011;22913;51.910;8.374;2023-06-04T04:37:08;2.05;;;1.60;;
37001;SDS011;22913;51.910;8.374;2023-06-04T04:39:54;1.80;;;1.70;;
37001;SDS011;22913;51.910;8.374;2023-06-04T04:42:41;1.80;;;1.70;;
37001;SDS011;22913;51.910;8.374;2023-06-04T04:45:27;1.70;;;1.60;;
37001;SDS011;22913;51.910;8.374;2023-06-04T04:48:13;2.10;;;1.90;;
37001;SDS011;22913;51.910;8.374;2023-06-04T04:50:59;3.35;;;1.50;;
37001;SDS011;22913;51.910;8.374;2023-06-04T04:53:45;3.30;;;1.97;;
37001;SDS011;22913;51.910;8.374;2023-06-04T04:56:32;3.00;;;1.40;;
37001;SDS011;22913;51.910;8.374;2023-06-04T04:59:20;1.70;;;1.60;;
37001;SDS011;22913;51.910;8.374;2023-06-04T05:02:06;1.40;;;1.30;;
37001;SDS011;22913;51.910;8.374;2023-06-04T05:04:53;1.77;;;1.67;;
37001;SDS011;22913;51.910;8.374;2023-06-04T05:07:38;2.00;;;1.50;;
37001;SDS011;22913;51.910;8.374;2023-06-04T05:10:24;2.03;;;1.67;;
37001;SDS011;22913;51.910;8.374;2023-06-04T05:13:10;2.07;;;1.80;;
37001;SDS011;22913;51.910;8.374;2023-06-04T05:15:58;2.33;;;1.60;;
37001;SDS011;22913;51.910;8.374;2023-06-04T05:18:50;3.63;;;1.70;;
37001;SDS011;22913;51.910;8.374;2023-06-04T05:21:36;1.73;;;1.57;;
37001;SDS011;22913;51.910;8.374;2023-06-04T05:24:22;1.93;;;1.50;;
37001;SDS011;22913;51.910;8.374;2023-06-04T05:27:08;4.63;;;1.40;;
37001;SDS011;22913;51.910;8.374;2023-06-04T05:29:54;2.33;;;1.40;;
37001;SDS011;22913;51.910;8.374;2023-06-04T05:32:41;3.87;;;1.30;;
37001;SDS011;22913;51.910;8.374;2023-06-04T05:35:27;1.87;;;1.67;;
37001;SDS011;22913;51.910;8.374;2023-06-04T05:38:14;1.93;;;1.60;;
37001;SDS011;22913;51.910;8.374;2023-06-04T05:41:01;2.60;;;1.77;;
37001;SDS011;22913;51.910;8.374;2023-06-04T05:43:47;1.60;;;1.50;;
37001;SDS011;22913;51.910;8.374;2023-06-04T05:46:33;1.90;;;1.70;;
37001;SDS011;22913;51.910;8.374;2023-06-04T05:49:21;2.30;;;1.87;;
37001;SDS011;22913;51.910;8.374;2023-06-04T05:52:08;1.30;;;1.30;;
37001;SDS011;22913;51.910;8.374;2023-06-04T05:54:54;1.57;;;1.47;;
37001;SDS011;22913;51.910;8.374;2023-06-04T05:57:40;1.70;;;1.60;;
37001;SDS011;22913;51.910;8.374;2023-06-04T06:00:26;1.53;;;1.43;;
37001;SDS011;22913;51.910;8.374;2023-06-04T06:03:11;1.70;;;1.60;;
37001;SDS011;22913;51.910;8.374;2023-06-04T06:06:01;1.40;;;1.30;;
37001;SDS011;22913;51.910;8.374;2023-06-04T06:08:47;1.47;;;1.30;;
37001;SDS011;22913;51.910;8.374;2023-06-04T06:11:33;3.07;;;1.97;;
37001;SDS011;22913;51.910;8.374;2023-06-04T06:14:19;3.93;;;1.50;;
37001;SDS011;22913;51.910;8.374;2023-06-04T06:17:07;2.13;;;1.33;;
37001;SDS011;22913;51.910;8.374;2023-06-04T06:19:52;2.03;;;1.50;;
37001;SDS011;22913;51.910;8.374;2023-06-04T06:22:40;2.63;;;1.50;;
37001;SDS011;22913;51.910;8.374;2023-06-04T06:25:26;1.40;;;1.30;;
37001;SDS011;22913;51.910;8.374;2023-06-04T06:28:12;5.43;;;1.90;;
37001;SDS011;22913;51.910;8.374;2023-06-04T06:30:58;1.60;;;1.50;;
37001;SDS011;22913;51.910;8.374;2023-06-04T06:33:43;2.00;;;1.50;;
37001;SDS011;22913;51.910;8.374;2023-06-04T06:36:29;1.53;;;1.43;;
37001;SDS011;22913;51.910;8.374;2023-06-04T06:39:18;1.70;;;1.50;;
37001;SDS011;22913;51.910;8.374;2023-06-04T06:42:03;1.93;;;1.33;;
37001;SDS011;22913;51.910;8.374;2023-06-04T06:44:49;1.40;;;1.30;;
37001;SDS011;22913;51.910;8.374;2023-06-04T06:47:35;1.47;;;1.37;;
37001;SDS011;22913;51.910;8.374;2023-06-04T06:50:21;3.73;;;1.93;;
37001;SDS011;22913;51.910;8.374;2023-06-04T06:53:07;5.23;;;2.30;;
37001;SDS011;22913;51.910;8.374;2023-06-04T06:55:54;2.10;;;2.00;;
37001;SDS011;22913;51.910;8.374;2023-06-04T06:58:40;2.60;;;2.10;;
37001;SDS011;22913;51.910;8.374;2023-06-04T07:01:26;1.70;;;1.60;;
37001;SDS011;22913;51.910;8.374;2023-06-04T07:04:12;2.70;;;1.73;;
37001;SDS011;22913;51.910;8.374;2023-06-04T07:06:58;3.93;;;2.00;;
37001;SDS011;22913;51.910;8.374;2023-06-04T07:09:43;2.40;;;2.20;;
37001;SDS011;22913;51.910;8.374;2023-06-04T07:12:31;3.23;;;2.93;;
37001;SDS011;22913;51.910;8.374;2023-06-04T07:15:17;5.53;;;4.33;;
37001;SDS011;22913;51.910;8.374;2023-06-04T07:18:02;3.30;;;2.50;;
37001;SDS011;22913;51.910;8.374;2023-06-04T07:20:48;2.03;;;1.83;;
37001;SDS011;22913;51.910;8.374;2023-06-04T07:23:36;1.90;;;1.80;;
37001;SDS011;22913;51.910;8.374;2023-06-04T07:26:21;2.10;;;1.87;;
37001;SDS011;22913;51.910;8.374;2023-06-04T07:29:10;4.63;;;1.70;;
37001;SDS011;22913;51.910;8.374;2023-06-04T07:31:56;2.93;;;1.90;;
37001;SDS011;22913;51.910;8.374;2023-06-04T07:34:42;2.07;;;1.83;;
37001;SDS011;22913;51.910;8.374;2023-06-04T07:37:28;1.80;;;1.70;;
37001;SDS011;22913;51.910;8.374;2023-06-04T07:40:13;1.90;;;1.80;;
37001;SDS011;22913;51.910;8.374;2023-06-04T07:42:59;1.80;;;1.63;;
37001;SDS011;22913;51.910;8.374;2023-06-04T07:45:46;1.60;;;1.50;;
37001;SDS011;22913;51.910;8.374;2023-06-04T07:48:32;3.80;;;2.07;;
37001;SDS011;22913;51.910;8.374;2023-06-04T07:54:03;2.40;;;1.90;;
37001;SDS011;22913;51.910;8.374;2023-06-04T07:56:49;2.15;;;2.00;;
37001;SDS011;22913;51.910;8.374;2023-06-04T07:59:40;3.55;;;2.30;;
37001;SDS011;22913;51.910;8.374;2023-06-04T08:02:27;3.43;;;2.33;;
37001;SDS011;22913;51.910;8.374;2023-06-04T08:05:13;3.70;;;2.35;;
37001;SDS011;22913;51.910;8.374;2023-06-04T08:07:58;10.87;;;6.50;;
37001;SDS011;22913;51.910;8.374;2023-06-04T08:10:44;7.90;;;5.30;;
37001;SDS011;22913;51.910;8.374;2023-06-04T08:13:30;6.60;;;4.10;;
37001;SDS011;22913;51.910;8.374;2023-06-04T08:16:16;6.33;;;3.00;;
37001;SDS011;22913;51.910;8.374;2023-06-04T08:19:03;4.63;;;2.53;;
37001;SDS011;22913;51.910;8.374;2023-06-04T08:21:50;2.80;;;2.20;;
37001;SDS011;22913;51.910;8.374;2023-06-04T08:24:39;2.55;;;2.10;;
37001;SDS011;22913;51.910;8.374;2023-06-04T08:27:25;7.40;;;4.30;;
37001;SDS011;22913;51.910;8.374;2023-06-04T08:30:11;6.35;;;5.20;;
37001;SDS011;22913;51.910;8.374;2023-06-04T08:32:57;2.87;;;2.10;;
37001;SDS011;22913;51.910;8.374;2023-06-04T08:35:45;3.50;;;2.13;;
37001;SDS011;22913;51.910;8.374;2023-06-04T08:38:31;10.20;;;3.20;;
37001;SDS011;22913;51.910;8.374;2023-06-04T08:41:17;5.10;;;1.70;;
37001;SDS011;22913;51.910;8.374;2023-06-04T08:44:10;3.23;;;1.70;;
37001;SDS011;22913;51.910;8.374;2023-06-04T08:46:57;2.00;;;1.90;;
37001;SDS011;22913;51.910;8.374;2023-06-04T08:49:48;1.80;;;1.70;;
37001;SDS011;22913;51.910;8.374;2023-06-04T08:52:36;2.10;;;1.90;;
37001;SDS011;22913;51.910;8.374;2023-06-04T08:55:23;1.97;;;1.70;;
37001;SDS011;22913;51.910;8.374;2023-06-04T09:09:13;6.70;;;5.00;;
37001;SDS011;22913;51.910;8.374;2023-06-04T09:12:01;7.20;;;3.00;;
37001;SDS011;22913;51.910;8.374;2023-06-04T09:14:48;5.70;;;2.30;;
37001;SDS011;22913;51.910;8.374;2023-06-04T09:17:35;2.37;;;1.70;;
37001;SDS011;22913;51.910;8.374;2023-06-04T09:20:21;2.60;;;2.40;;
37001;SDS011;22913;51.910;8.374;2023-06-04T09:23:14;2.70;;;2.40;;
37001;SDS011;22913;51.910;8.374;2023-06-04T09:26:08;5.73;;;5.10;;
37001;SDS011;22913;51.910;8.374;2023-06-04T09:28:54;4.87;;;3.30;;
37001;SDS011;22913;51.910;8.374;2023-06-04T09:31:44;2.57;;;2.30;;
37001;SDS011;22913;51.910;8.374;2023-06-04T09:34:30;2.30;;;2.10;;
37001;SDS011;22913;51.910;8.374;2023-06-04T09:37:16;4.10;;;3.10;;
37001;SDS011;22913;51.910;8.374;2023-06-04T09:40:02;2.30;;;2.10;;
37001;SDS011;22913;51.910;8.374;2023-06-04T09:42:50;1.83;;;1.73;;
37001;SDS011;22913;51.910;8.374;2023-06-04T09:45:38;2.23;;;2.00;;
37001;SDS011;22913;51.910;8.374;2023-06-04T09:48:24;3.65;;;2.00;;
37001;SDS011;22913;51.910;8.374;2023-06-04T09:51:10;3.00;;;1.80;;
37001;SDS011;22913;51.910;8.374;2023-06-04T09:56:44;2.27;;;2.03;;
37001;SDS011;22913;51.910;8.374;2023-06-04T09:59:30;1.95;;;1.60;;
37001;SDS011;22913;51.910;8.374;2023-06-04T10:13:26;2.15;;;2.00;;
37001;SDS011;22913;51.910;8.374;2023-06-04T10:19:00;5.85;;;2.25;;
37001;SDS011;22913;51.910;8.374;2023-06-04T10:30:04;3.80;;;1.80;;
37001;SDS011;22913;51.910;8.374;2023-06-04T11:03:24;2.10;;;2.00;;
37001;SDS011;22913;51.910;8.374;2023-06-04T11:06:22;3.75;;;1.90;;
37001;SDS011;22913;51.910;8.374;2023-06-04T11:14:53;2.77;;;1.90;;
37001;SDS011;22913;51.910;8.374;2023-06-04T11:17:49;5.57;;;1.97;;
37001;SDS011;22913;51.910;8.374;2023-06-04T11:20:36;2.00;;;1.63;;
37001;SDS011;22913;51.910;8.374;2023-06-04T11:23:23;2.60;;;2.40;;
37001;SDS011;22913;51.910;8.374;2023-06-04T11:26:08;4.90;;;2.30;;
37001;SDS011;22913;51.910;8.374;2023-06-04T11:28:55;3.40;;;2.27;;
37001;SDS011;22913;51.910;8.374;2023-06-04T11:31:41;2.53;;;2.17;;
37001;SDS011;22913;51.910;8.374;2023-06-04T11:34:28;2.67;;;2.43;;
37001;SDS011;22913;51.910;8.374;2023-06-04T11:37:15;4.37;;;1.97;;
37001;SDS011;22913;51.910;8.374;2023-06-04T11:40:03;2.03;;;1.50;;
37001;SDS011;22913;51.910;8.374;2023-06-04T11:42:59;2.07;;;1.90;;
37001;SDS011;22913;51.910;8.374;2023-06-04T11:45:46;2.30;;;2.10;;
37001;SDS011;22913;51.910;8.374;2023-06-04T11:48:31;1.93;;;1.83;;
37001;SDS011;22913;51.910;8.374;2023-06-04T11:51:18;1.80;;;1.70;;
37001;SDS011;22913;51.910;8.374;2023-06-04T11:54:04;1.77;;;1.67;;
37001;SDS011;22913;51.910;8.374;2023-06-04T11:56:51;2.00;;;1.80;;
37001;SDS011;22913;51.910;8.374;2023-06-04T11:59:38;1.73;;;1.50;;
37001;SDS011;22913;51.910;8.374;2023-06-04T12:02:23;4.47;;;1.87;;
37001;SDS011;22913;51.910;8.374;2023-06-04T12:05:10;2.00;;;1.90;;
37001;SDS011;22913;51.910;8.374;2023-06-04T12:08:04;1.97;;;1.70;;
37001;SDS011;22913;51.910;8.374;2023-06-04T12:10:53;2.13;;;1.93;;
37001;SDS011;22913;51.910;8.374;2023-06-04T12:13:40;2.00;;;1.80;;
37001;SDS011;22913;51.910;8.374;2023-06-04T12:16:25;2.20;;;2.00;;
37001;SDS011;22913;51.910;8.374;2023-06-04T12:19:12;2.13;;;1.93;;
37001;SDS011;22913;51.910;8.374;2023-06-04T12:22:01;1.97;;;1.77;;
37001;SDS011;22913;51.910;8.374;2023-06-04T12:24:48;1.93;;;1.73;;
37001;SDS011;22913;51.910;8.374;2023-06-04T12:27:46;2.23;;;2.10;;
37001;SDS011;22913;51.910;8.374;2023-06-04T12:30:36;1.90;;;1.80;;
37001;SDS011;22913;51.910;8.374;2023-06-04T12:33:23;5.27;;;2.40;;
37001;SDS011;22913;51.910;8.374;2023-06-04T12:36:09;1.80;;;1.70;;
37001;SDS011;22913;51.910;8.374;2023-06-04T12:38:57;2.00;;;1.63;;
37001;SDS011;22913;51.910;8.374;2023-06-04T12:41:44;2.23;;;2.10;;
37001;SDS011;22913;51.910;8.374;2023-06-04T12:44:31;2.83;;;2.63;;
37001;SDS011;22913;51.910;8.374;2023-06-04T12:47:17;2.87;;;2.60;;
37001;SDS011;22913;51.910;8.374;2023-06-04T12:50:05;2.37;;;2.10;;
37001;SDS011;22913;51.910;8.374;2023-06-04T12:52:50;2.60;;;2.40;;
37001;SDS011;22913;51.910;8.374;2023-06-04T12:55:36;1.77;;;1.67;;
37001;SDS011;22913;51.910;8.374;2023-06-04T12:58:22;2.87;;;2.67;;
37001;SDS011;22913;51.910;8.374;2023-06-04T13:01:07;3.23;;;3.00;;
37001;SDS011;22913;51.910;8.374;2023-06-04T13:03:55;3.17;;;2.10;;
37001;SDS011;22913;51.910;8.374;2023-06-04T13:06:40;2.43;;;2.23;;
37001;SDS011;22913;51.910;8.374;2023-06-04T13:09:26;2.10;;;1.77;;
37001;SDS011;22913;51.910;8.374;2023-06-04T13:12:12;3.07;;;1.57;;
37001;SDS011;22913;51.910;8.374;2023-06-04T13:14:58;1.97;;;1.70;;
37001;SDS011;22913;51.910;8.374;2023-06-04T13:17:45;1.87;;;1.50;;
37001;SDS011;22913;51.910;8.374;2023-06-04T13:20:32;2.10;;;1.90;;
37001;SDS011;22913;51.910;8.374;2023-06-04T13:23:18;1.83;;;1.70;;
37001;SDS011;22913;51.910;8.374;2023-06-04T13:26:04;1.70;;;1.60;;
37001;SDS011;22913;51.910;8.374;2023-06-04T13:28:49;1.57;;;1.47;;
37001;SDS011;22913;51.910;8.374;2023-06-04T13:31:35;1.80;;;1.70;;
37001;SDS011;22913;51.910;8.374;2023-06-04T13:34:22;1.90;;;1.70;;
37001;SDS011;22913;51.910;8.374;2023-06-04T13:37:09;1.90;;;1.73;;
37001;SDS011;22913;51.910;8.374;2023-06-04T13:39:56;4.10;;;1.70;;
37001;SDS011;22913;51.910;8.374;2023-06-04T13:42:42;4.00;;;1.63;;
37001;SDS011;22913;51.910;8.374;2023-06-04T13:45:28;10.10;;;2.00;;
37001;SDS011;22913;51.910;8.374;2023-06-04T13:48:14;1.60;;;1.50;;
37001;SDS011;22913;51.910;8.374;2023-06-04T13:51:00;1.35;;;1.35;;
37001;SDS011;22913;51.910;8.374;2023-06-04T13:53:47;1.57;;;1.40;;
37001;SDS011;22913;51.910;8.374;2023-06-04T13:56:35;2.57;;;1.90;;
37001;SDS011;22913;51.910;8.374;2023-06-04T13:59:21;1.50;;;1.40;;
37001;SDS011;22913;51.910;8.374;2023-06-04T14:02:07;2.67;;;1.80;;
37001;SDS011;22913;51.910;8.374;2023-06-04T14:04:53;1.90;;;1.80;;
37001;SDS011;22913;51.910;8.374;2023-06-04T14:07:40;1.55;;;1.52;;
37001;SDS011;22913;51.910;8.374;2023-06-04T14:10:27;2.60;;;1.70;;
37001;SDS011;22913;51.910;8.374;2023-06-04T14:13:13;1.60;;;1.50;;
37001;SDS011;22913;51.910;8.374;2023-06-04T14:15:58;1.60;;;1.50;;
37001;SDS011;22913;51.910;8.374;2023-06-04T14:18:44;1.63;;;1.52;;
37001;SDS011;22913;51.910;8.374;2023-06-04T14:21:29;1.70;;;1.60;;
37001;SDS011;22913;51.910;8.374;2023-06-04T14:24:15;1.45;;;1.45;;
37001;SDS011;22913;51.910;8.374;2023-06-04T14:27:03;1.63;;;1.58;;
37001;SDS011;22913;51.910;8.374;2023-06-04T14:29:50;1.70;;;1.60;;
37001;SDS011;22913;51.910;8.374;2023-06-04T14:32:36;2.50;;;1.60;;
37001;SDS011;22913;51.910;8.374;2023-06-04T14:35:22;1.52;;;1.50;;
37001;SDS011;22913;51.910;8.374;2023-06-04T14:38:08;1.83;;;1.70;;
37001;SDS011;22913;51.910;8.374;2023-06-04T14:40:53;2.00;;;1.90;;
37001;SDS011;22913;51.910;8.374;2023-06-04T14:43:41;1.50;;;1.50;;
37001;SDS011;22913;51.910;8.374;2023-06-04T14:46:26;2.15;;;1.60;;
37001;SDS011;22913;51.910;8.374;2023-06-04T14:49:12;1.40;;;1.30;;
37001;SDS011;22913;51.910;8.374;2023-06-04T14:51:58;2.53;;;1.52;;
37001;SDS011;22913;51.910;8.374;2023-06-04T14:54:44;1.60;;;1.50;;
37001;SDS011;22913;51.910;8.374;2023-06-04T14:57:29;1.48;;;1.48;;
37001;SDS011;22913;51.910;8.374;2023-06-04T15:00:16;1.70;;;1.60;;
37001;SDS011;22913;51.910;8.374;2023-06-04T15:03:03;2.45;;;1.38;;
37001;SDS011;22913;51.910;8.374;2023-06-04T15:05:49;2.10;;;1.40;;
37001;SDS011;22913;51.910;8.374;2023-06-04T15:08:34;2.25;;;1.80;;
37001;SDS011;22913;51.910;8.374;2023-06-04T15:11:20;1.50;;;1.40;;
37001;SDS011;22913;51.910;8.374;2023-06-04T15:14:06;1.98;;;1.52;;
37001;SDS011;22913;51.910;8.374;2023-06-04T15:16:53;1.70;;;1.33;;
37001;SDS011;22913;51.910;8.374;2023-06-04T15:19:38;1.48;;;1.40;;
37001;SDS011;22913;51.910;8.374;2023-06-04T15:22:24;1.73;;;1.58;;
37001;SDS011;22913;51.910;8.374;2023-06-04T15:25:10;1.42;;;1.33;;
37001;SDS011;22913;51.910;8.374;2023-06-04T15:27:55;1.40;;;1.30;;
37001;SDS011;22913;51.910;8.374;2023-06-04T15:30:41;1.77;;;1.67;;
37001;SDS011;22913;51.910;8.374;2023-06-04T15:33:28;1.50;;;1.40;;
37001;SDS011;22913;51.910;8.374;2023-06-04T15:36:14;1.95;;;1.52;;
37001;SDS011;22913;51.910;8.374;2023-06-04T15:38:59;1.52;;;1.42;;
37001;SDS011;22913;51.910;8.374;2023-06-04T15:41:45;1.50;;;1.40;;
37001;SDS011;22913;51.910;8.374;2023-06-04T15:44:31;1.70;;;1.60;;
37001;SDS011;22913;51.910;8.374;2023-06-04T15:47:16;1.60;;;1.50;;
37001;SDS011;22913;51.910;8.374;2023-06-04T15:50:04;1.17;;;1.17;;
37001;SDS011;22913;51.910;8.374;2023-06-04T15:52:51;1.55;;;1.40;;
37001;SDS011;22913;51.910;8.374;2023-06-04T15:55:37;1.98;;;1.80;;
37001;SDS011;22913;51.910;8.374;2023-06-04T15:58:22;1.35;;;1.25;;
37001;SDS011;22913;51.910;8.374;2023-06-04T16:01:08;1.55;;;1.45;;
37001;SDS011;22913;51.910;8.374;2023-06-04T16:03:54;1.60;;;1.52;;
37001;SDS011;22913;51.910;8.374;2023-06-04T16:06:41;1.30;;;1.30;;
37001;SDS011;22913;51.910;8.374;2023-06-04T16:09:27;1.40;;;1.30;;
37001;SDS011;22913;51.910;8.374;2023-06-04T16:12:13;1.92;;;1.67;;
37001;SDS011;22913;51.910;8.374;2023-06-04T16:14:59;1.48;;;1.40;;
37001;SDS011;22913;51.910;8.374;2023-06-04T16:17:44;3.38;;;1.50;;
37001;SDS011;22913;51.910;8.374;2023-06-04T16:20:31;1.80;;;1.70;;
37001;SDS011;22913;51.910;8.374;2023-06-04T16:23:18;2.90;;;1.90;;
37001;SDS011;22913;51.910;8.374;2023-06-04T16:26:03;1.80;;;1.50;;
37001;SDS011;22913;51.910;8.374;2023-06-04T16:28:49;1.60;;;1.50;;
37001;SDS011;22913;51.910;8.374;2023-06-04T16:31:35;1.90;;;1.80;;
37001;SDS011;22913;51.910;8.374;2023-06-04T16:34:20;1.60;;;1.43;;
37001;SDS011;22913;51.910;8.374;2023-06-04T16:37:06;1.80;;;1.70;;
37001;SDS011;22913;51.910;8.374;2023-06-04T16:39:53;1.50;;;1.40;;
37001;SDS011;22913;51.910;8.374;2023-06-04T16:42:39;1.70;;;1.60;;
37001;SDS011;22913;51.910;8.374;2023-06-04T16:45:25;1.60;;;1.50;;
37001;SDS011;22913;51.910;8.374;2023-06-04T16:48:11;1.63;;;1.47;;
37001;SDS011;22913;51.910;8.374;2023-06-04T16:50:57;1.60;;;1.50;;
37001;SDS011;22913;51.910;8.374;2023-06-04T16:53:43;2.83;;;1.60;;
37001;SDS011;22913;51.910;8.374;2023-06-04T16:56:30;1.50;;;1.40;;
37001;SDS011;22913;51.910;8.374;2023-06-04T16:59:15;1.70;;;1.60;;
37001;SDS011;22913;51.910;8.374;2023-06-04T17:02:01;1.73;;;1.50;;
37001;SDS011;22913;51.910;8.374;2023-06-04T17:04:48;2.00;;;1.80;;
37001;SDS011;22913;51.910;8.374;2023-06-04T17:07:33;2.30;;;1.60;;
37001;SDS011;22913;51.910;8.374;2023-06-04T17:10:19;1.70;;;1.60;;
37001;SDS011;22913;51.910;8.374;2023-06-04T17:13:06;1.73;;;1.63;;
37001;SDS011;22913;51.910;8.374;2023-06-04T17:15:51;1.70;;;1.60;;
37001;SDS011;22913;51.910;8.374;2023-06-04T17:18:37;1.93;;;1.73;;
37001;SDS011;22913;51.910;8.374;2023-06-04T17:21:23;4.30;;;1.57;;
37001;SDS011;22913;51.910;8.374;2023-06-04T17:24:09;1.80;;;1.70;;
37001;SDS011;22913;51.910;8.374;2023-06-04T17:26:54;1.70;;;1.60;;
37001;SDS011;22913;51.910;8.374;2023-06-04T17:29:41;1.67;;;1.17;;
37001;SDS011;22913;51.910;8.374;2023-06-04T17:32:27;1.47;;;1.40;;
37001;SDS011;22913;51.910;8.374;2023-06-04T17:35:13;1.40;;;1.30;;
37001;SDS011;22913;51.910;8.374;2023-06-04T17:37:59;1.43;;;1.40;;
37001;SDS011;22913;51.910;8.374;2023-06-04T17:40:45;1.10;;;1.10;;
37001;SDS011;22913;51.910;8.374;2023-06-04T17:43:31;1.80;;;1.70;;
37001;SDS011;22913;51.910;8.374;2023-06-04T17:46:18;2.40;;;1.80;;
37001;SDS011;22913;51.910;8.374;2023-06-04T17:49:04;1.87;;;1.70;;
37001;SDS011;22913;51.910;8.374;2023-06-04T17:51:53;1.23;;;1.23;;
37001;SDS011;22913;51.910;8.374;2023-06-04T17:54:39;1.50;;;1.40;;
37001;SDS011;22913;51.910;8.374;2023-06-04T17:57:24;1.80;;;1.70;;
37001;SDS011;22913;51.910;8.374;2023-06-04T18:00:11;1.60;;;1.50;;
37001;SDS011;22913;51.910;8.374;2023-06-04T18:02:59;1.43;;;1.40;;
37001;SDS011;22913;51.910;8.374;2023-06-04T18:05:44;1.67;;;1.57;;
37001;SDS011;22913;51.910;8.374;2023-06-04T18:08:29;1.60;;;1.50;;
37001;SDS011;22913;51.910;8.374;2023-06-04T18:11:15;1.50;;;1.40;;
37001;SDS011;22913;51.910;8.374;2023-06-04T18:14:01;2.63;;;1.43;;
37001;SDS011;22913;51.910;8.374;2023-06-04T18:16:48;1.73;;;1.53;;
37001;SDS011;22913;51.910;8.374;2023-06-04T18:19:35;2.30;;;1.40;;
37001;SDS011;22913;51.910;8.374;2023-06-04T18:22:21;2.03;;;1.93;;
37001;SDS011;22913;51.910;8.374;2023-06-04T18:25:08;1.80;;;1.70;;
37001;SDS011;22913;51.910;8.374;2023-06-04T18:27:54;3.20;;;2.90;;
37001;SDS011;22913;51.910;8.374;2023-06-04T18:30:40;2.60;;;2.10;;
37001;SDS011;22913;51.910;8.374;2023-06-04T18:33:26;2.53;;;1.67;;
37001;SDS011;22913;51.910;8.374;2023-06-04T18:36:13;5.00;;;1.70;;
37001;SDS011;22913;51.910;8.374;2023-06-04T18:38:58;1.80;;;1.70;;
37001;SDS011;22913;51.910;8.374;2023-06-04T18:41:46;1.30;;;1.20;;
37001;SDS011;22913;51.910;8.374;2023-06-04T18:44:32;1.60;;;1.50;;
37001;SDS011;22913;51.910;8.374;2023-06-04T18:47:18;1.70;;;1.40;;
37001;SDS011;22913;51.910;8.374;2023-06-04T18:50:05;1.57;;;1.50;;
37001;SDS011;22913;51.910;8.374;2023-06-04T18:52:53;1.43;;;1.40;;
37001;SDS011;22913;51.910;8.374;2023-06-04T18:55:39;1.40;;;1.30;;
37001;SDS011;22913;51.910;8.374;2023-06-04T18:58:26;1.53;;;1.43;;
37001;SDS011;22913;51.910;8.374;2023-06-04T19:01:12;1.43;;;1.43;;
37001;SDS011;22913;51.910;8.374;2023-06-04T19:03:58;1.60;;;1.50;;
37001;SDS011;22913;51.910;8.374;2023-06-04T19:06:44;1.87;;;1.40;;
37001;SDS011;22913;51.910;8.374;2023-06-04T19:09:31;1.57;;;1.40;;
37001;SDS011;22913;51.910;8.374;2023-06-04T19:12:17;1.70;;;1.60;;
37001;SDS011;22913;51.910;8.374;2023-06-04T19:15:03;2.13;;;1.80;;
37001;SDS011;22913;51.910;8.374;2023-06-04T19:17:50;2.00;;;1.90;;
37001;SDS011;22913;51.910;8.374;2023-06-04T19:20:36;1.53;;;1.43;;
37001;SDS011;22913;51.910;8.374;2023-06-04T19:23:21;1.83;;;1.53;;
37001;SDS011;22913;51.910;8.374;2023-06-04T19:26:09;4.80;;;1.77;;
37001;SDS011;22913;51.910;8.374;2023-06-04T19:28:54;3.17;;;1.60;;
37001;SDS011;22913;51.910;8.374;2023-06-04T19:31:40;1.50;;;1.40;;
37001;SDS011;22913;51.910;8.374;2023-06-04T19:34:26;3.37;;;1.93;;
37001;SDS011;22913;51.910;8.374;2023-06-04T19:37:12;1.80;;;1.70;;
37001;SDS011;22913;51.910;8.374;2023-06-04T19:39:57;2.40;;;1.50;;
37001;SDS011;22913;51.910;8.374;2023-06-04T19:42:44;1.97;;;1.70;;
37001;SDS011;22913;51.910;8.374;2023-06-04T19:45:30;2.00;;;1.87;;
37001;SDS011;22913;51.910;8.374;2023-06-04T19:48:16;1.90;;;1.80;;
37001;SDS011;22913;51.910;8.374;2023-06-04T19:51:02;1.83;;;1.73;;
37001;SDS011;22913;51.910;8.374;2023-06-04T19:53:47;1.70;;;1.60;;
37001;SDS011;22913;51.910;8.374;2023-06-04T19:56:33;1.50;;;1.40;;
37001;SDS011;22913;51.910;8.374;2023-06-04T19:59:20;2.03;;;1.60;;
37001;SDS011;22913;51.910;8.374;2023-06-04T20:02:06;3.17;;;1.80;;
37001;SDS011;22913;51.910;8.374;2023-06-04T20:04:53;2.10;;;1.90;;
37001;SDS011;22913;51.910;8.374;2023-06-04T20:07:39;2.17;;;1.97;;
37001;SDS011;22913;51.910;8.374;2023-06-04T20:10:25;2.60;;;2.17;;
37001;SDS011;22913;51.910;8.374;2023-06-04T20:13:11;4.97;;;2.50;;
37001;SDS011;22913;51.910;8.374;2023-06-04T20:15:58;3.60;;;2.20;;
37001;SDS011;22913;51.910;8.374;2023-06-04T20:18:45;5.47;;;1.87;;
37001;SDS011;22913;51.910;8.374;2023-06-04T20:21:32;2.50;;;2.30;;
37001;SDS011;22913;51.910;8.374;2023-06-04T20:24:19;5.13;;;2.10;;
37001;SDS011;22913;51.910;8.374;2023-06-04T20:27:04;3.23;;;2.20;;
37001;SDS011;22913;51.910;8.374;2023-06-04T20:29:50;3.37;;;1.90;;
37001;SDS011;22913;51.910;8.374;2023-06-04T20:32:37;3.43;;;1.90;;
37001;SDS011;22913;51.910;8.374;2023-06-04T20:35:24;3.50;;;2.20;;
37001;SDS011;22913;51.910;8.374;2023-06-04T20:38:10;2.30;;;2.10;;
37001;SDS011;22913;51.910;8.374;2023-06-04T20:40:55;2.53;;;2.03;;
37001;SDS011;22913;51.910;8.374;2023-06-04T20:43:45;2.17;;;1.83;;
37001;SDS011;22913;51.910;8.374;2023-06-04T20:46:31;2.37;;;1.97;;
37001;SDS011;22913;51.910;8.374;2023-06-04T20:49:19;2.97;;;2.40;;
37001;SDS011;22913;51.910;8.374;2023-06-04T20:52:04;2.73;;;2.20;;
37001;SDS011;22913;51.910;8.374;2023-06-04T20:54:50;7.00;;;2.40;;
37001;SDS011;22913;51.910;8.374;2023-06-04T20:57:36;4.53;;;4.10;;
37001;SDS011;22913;51.910;8.374;2023-06-04T21:00:21;3.53;;;2.13;;
37001;SDS011;22913;51.910;8.374;2023-06-04T21:03:09;4.30;;;1.83;;
37001;SDS011;22913;51.910;8.374;2023-06-04T21:05:56;2.90;;;1.97;;
37001;SDS011;22913;51.910;8.374;2023-06-04T21:11:27;3.23;;;2.03;;
37001;SDS011;22913;51.910;8.374;2023-06-04T21:14:13;5.37;;;2.20;;
37001;SDS011;22913;51.910;8.374;2023-06-04T21:16:59;7.57;;;2.43;;